PWSweather.com
Personal Weather Stations
Station Observations
KVAGLENALL
West Henrico, Glen Allen, VA 23060-6503

West HenricoGlen Allen, VA 23060-6503

Lat: 37.6554, Lon: -77.5693

Elevation: 273

Station Type: Davis Vantage Pro II

www.glenallenweather.com

High Low Average
Temperature 85.3°F29.6°C 61.2°F16.2°C 73.8°F23.2°C
Dew Point 66.4°F19.1°C 58.7°F14.8°C 62.5°F16.9°C
Winds 6.1 mph 9.8 kmh 0.1 mph 0.2 kmh 1.0 mph S1.6 kmh S
Wind Gusts 11.2 mph18.0 kmh 0.1 mph0.2 kmh 3.0 mph4.8 kmh
Humidity 95% 45% 70%
Pressure 30.05 in1017.6 mb 29.94 in1013.9 mb -
Precipitation 0.00 in0.0 mm - -
Hour Temp Dew Point Humidity Winds Wind Gusts Pressure Precip Precip Rate Daily Precip Total
12:00 AM 64.6°F18.1°C 61.3°F16.3°C 89% 0.1 mph S0.2 kmh S 1.1 mph1.8 kmh 30.01 in1016.3 mb 0.00 in0.0 mm 0.00 in0.0 mm 0.00 in0.0 mm
12:15 AM 64.3°F17.9°C 61.0°F16.1°C 89% 0.1 mph S0.2 kmh S 3.1 mph5.0 kmh 30.01 in1016.3 mb 0.00 in0.0 mm 0.00 in0.0 mm 0.00 in0.0 mm
12:30 AM 64.6°F18.1°C 61.0°F16.1°C 88% 3.0 mph S4.8 kmh S 4.1 mph6.6 kmh 30.01 in1016.3 mb 0.00 in0.0 mm 0.00 in0.0 mm 0.00 in0.0 mm
12:45 AM 64.9°F18.3°C 61.3°F16.3°C 88% 5.1 mph S8.2 kmh S 5.1 mph8.2 kmh 30.01 in1016.3 mb 0.00 in0.0 mm 0.00 in0.0 mm 0.00 in0.0 mm
01:00 AM 64.4°F18.0°C 60.8°F16.0°C 88% 1.0 mph S1.6 kmh S 3.1 mph5.0 kmh 30.01 in1016.3 mb 0.00 in0.0 mm 0.00 in0.0 mm 0.00 in0.0 mm
01:15 AM 65.2°F18.4°C 61.9°F16.6°C 89% 1.0 mph SSW1.6 kmh SSW 3.1 mph5.0 kmh 30.01 in1016.3 mb 0.00 in0.0 mm 0.00 in0.0 mm 0.00 in0.0 mm
01:30 AM 66.4°F19.1°C 62.1°F16.7°C 86% 1.0 mph SSW1.6 kmh SSW 4.1 mph6.6 kmh 30.01 in1016.3 mb 0.00 in0.0 mm 0.00 in0.0 mm 0.00 in0.0 mm
01:45 AM 66.8°F19.3°C 61.9°F16.6°C 84% 4.1 mph S6.6 kmh S 4.1 mph6.6 kmh 30.01 in1016.3 mb 0.00 in0.0 mm 0.00 in0.0 mm 0.00 in0.0 mm
02:00 AM 67.2°F19.6°C 61.9°F16.6°C 83% 3.0 mph SSW4.8 kmh SSW 5.1 mph8.2 kmh 30.00 in1015.9 mb 0.00 in0.0 mm 0.00 in0.0 mm 0.00 in0.0 mm
02:15 AM 67.5°F19.7°C 61.9°F16.6°C 82% 4.1 mph S6.6 kmh S 4.1 mph6.6 kmh 30.00 in1015.9 mb 0.00 in0.0 mm 0.00 in0.0 mm 0.00 in0.0 mm
02:30 AM 66.6°F19.2°C 62.0°F16.7°C 85% 1.0 mph S1.6 kmh S 3.1 mph5.0 kmh 30.00 in1015.9 mb 0.00 in0.0 mm 0.00 in0.0 mm 0.00 in0.0 mm
02:45 AM 66.0°F18.9°C 61.4°F16.3°C 85% 2.0 mph SW3.2 kmh SW 2.1 mph3.4 kmh 30.00 in1015.9 mb 0.00 in0.0 mm 0.00 in0.0 mm 0.00 in0.0 mm
03:00 AM 65.7°F18.7°C 61.4°F16.3°C 86% 0.1 mph S0.2 kmh S 1.1 mph1.8 kmh 30.00 in1015.9 mb 0.00 in0.0 mm 0.00 in0.0 mm 0.00 in0.0 mm
03:15 AM 65.2°F18.4°C 61.3°F16.3°C 87% 0.1 mph S0.2 kmh S 0.1 mph0.2 kmh 29.99 in1015.6 mb 0.00 in0.0 mm 0.00 in0.0 mm 0.00 in0.0 mm
03:30 AM 64.4°F18.0°C 61.1°F16.2°C 89% 0.1 mph SW0.2 kmh SW 0.1 mph0.2 kmh 30.00 in1015.9 mb 0.00 in0.0 mm 0.00 in0.0 mm 0.00 in0.0 mm
03:45 AM 63.8°F17.7°C 60.8°F16.0°C 90% 0.1 mph S0.2 kmh S 0.1 mph0.2 kmh 29.99 in1015.6 mb 0.00 in0.0 mm 0.00 in0.0 mm 0.00 in0.0 mm
04:00 AM 63.4°F17.4°C 60.8°F16.0°C 91% 0.1 mph S0.2 kmh S 1.1 mph1.8 kmh 29.99 in1015.6 mb 0.00 in0.0 mm 0.00 in0.0 mm 0.00 in0.0 mm
04:15 AM 62.9°F17.2°C 60.3°F15.7°C 91% 0.1 mph S0.2 kmh S 0.1 mph0.2 kmh 29.99 in1015.6 mb 0.00 in0.0 mm 0.00 in0.0 mm 0.00 in0.0 mm
04:30 AM 62.3°F16.8°C 60.3°F15.7°C 93% 0.1 mph S0.2 kmh S 2.1 mph3.4 kmh 29.99 in1015.6 mb 0.00 in0.0 mm 0.00 in0.0 mm 0.00 in0.0 mm
04:45 AM 62.3°F16.8°C 60.3°F15.7°C 93% 0.1 mph S0.2 kmh S 2.1 mph3.4 kmh 29.99 in1015.6 mb 0.00 in0.0 mm 0.00 in0.0 mm 0.00 in0.0 mm
05:00 AM 62.0°F16.7°C 60.0°F15.6°C 93% 0.1 mph S0.2 kmh S 2.1 mph3.4 kmh 29.99 in1015.6 mb 0.00 in0.0 mm 0.00 in0.0 mm 0.00 in0.0 mm
05:15 AM 61.4°F16.3°C 59.7°F15.4°C 94% 0.1 mph S0.2 kmh S 0.1 mph0.2 kmh 29.98 in1015.2 mb 0.00 in0.0 mm 0.00 in0.0 mm 0.00 in0.0 mm
05:30 AM 61.4°F16.3°C 60.0°F15.6°C 95% 0.1 mph S0.2 kmh S 0.1 mph0.2 kmh 30.00 in1015.9 mb 0.00 in0.0 mm 0.00 in0.0 mm 0.00 in0.0 mm
05:45 AM 61.2°F16.2°C 59.8°F15.4°C 95% 0.1 mph S0.2 kmh S 0.1 mph0.2 kmh 30.00 in1015.9 mb 0.00 in0.0 mm 0.00 in0.0 mm 0.00 in0.0 mm
06:00 AM 61.8°F16.6°C 60.4°F15.8°C 95% 0.1 mph S0.2 kmh S 2.1 mph3.4 kmh 30.00 in1015.9 mb 0.00 in0.0 mm 0.00 in0.0 mm 0.00 in0.0 mm
06:15 AM 62.5°F16.9°C 61.1°F16.2°C 95% 2.0 mph S3.2 kmh S 3.1 mph5.0 kmh 30.01 in1016.3 mb 0.00 in0.0 mm 0.00 in0.0 mm 0.00 in0.0 mm
06:30 AM 63.4°F17.4°C 61.4°F16.3°C 93% 0.1 mph S0.2 kmh S 0.1 mph0.2 kmh 30.02 in1016.6 mb 0.00 in0.0 mm 0.00 in0.0 mm 0.00 in0.0 mm
06:45 AM 63.4°F17.4°C 61.4°F16.3°C 93% 0.1 mph S0.2 kmh S 0.1 mph0.2 kmh 30.02 in1016.6 mb 0.00 in0.0 mm 0.00 in0.0 mm 0.00 in0.0 mm
07:00 AM 63.2°F17.3°C 61.2°F16.2°C 93% 0.1 mph S0.2 kmh S 0.1 mph0.2 kmh 30.02 in1016.6 mb 0.00 in0.0 mm 0.00 in0.0 mm 0.00 in0.0 mm
07:15 AM 63.7°F17.6°C 61.7°F16.5°C 93% 0.1 mph NE0.2 kmh NE 2.1 mph3.4 kmh 30.03 in1016.9 mb 0.00 in0.0 mm 0.00 in0.0 mm 0.00 in0.0 mm
07:30 AM 64.6°F18.1°C 62.3°F16.8°C 92% 0.1 mph NW0.2 kmh NW 0.1 mph0.2 kmh 30.03 in1016.9 mb 0.00 in0.0 mm 0.00 in0.0 mm 0.00 in0.0 mm
07:45 AM 65.8°F18.8°C 62.5°F16.9°C 89% 1.0 mph NW1.6 kmh NW 1.1 mph1.8 kmh 30.03 in1016.9 mb 0.00 in0.0 mm 0.00 in0.0 mm 0.00 in0.0 mm
08:00 AM 66.9°F19.4°C 62.9°F17.2°C 87% 0.1 mph SW0.2 kmh SW 1.1 mph1.8 kmh 30.04 in1017.3 mb 0.00 in0.0 mm 0.00 in0.0 mm 0.00 in0.0 mm
08:15 AM 68.2°F20.1°C 63.6°F17.6°C 85% 0.1 mph WSW0.2 kmh WSW 1.1 mph1.8 kmh 30.05 in1017.6 mb 0.00 in0.0 mm 0.00 in0.0 mm 0.00 in0.0 mm
08:30 AM 69.8°F21.0°C 63.3°F17.4°C 80% 0.1 mph NNE0.2 kmh NNE 2.1 mph3.4 kmh 30.05 in1017.6 mb 0.00 in0.0 mm 0.00 in0.0 mm 0.00 in0.0 mm
08:45 AM 72.6°F22.6°C 64.6°F18.1°C 76% 0.1 mph S0.2 kmh S 2.1 mph3.4 kmh 30.05 in1017.6 mb 0.00 in0.0 mm 0.00 in0.0 mm 0.00 in0.0 mm
09:00 AM 74.4°F23.6°C 64.4°F18.0°C 71% 1.0 mph S1.6 kmh S 1.1 mph1.8 kmh 30.05 in1017.6 mb 0.00 in0.0 mm 0.00 in0.0 mm 0.00 in0.0 mm
09:15 AM 76.9°F24.9°C 65.1°F18.4°C 67% 0.1 mph S0.2 kmh S 1.1 mph1.8 kmh 30.04 in1017.3 mb 0.00 in0.0 mm 0.00 in0.0 mm 0.00 in0.0 mm
09:30 AM 78.2°F25.7°C 64.6°F18.1°C 63% 0.1 mph S0.2 kmh S 0.1 mph0.2 kmh 30.04 in1017.3 mb 0.00 in0.0 mm 0.00 in0.0 mm 0.00 in0.0 mm
09:45 AM 79.3°F26.3°C 66.1°F18.9°C 64% 0.1 mph NNW0.2 kmh NNW 2.1 mph3.4 kmh 30.04 in1017.3 mb 0.00 in0.0 mm 0.00 in0.0 mm 0.00 in0.0 mm
10:00 AM 79.9°F26.6°C 65.3°F18.5°C 61% 2.0 mph SE3.2 kmh SE 3.1 mph5.0 kmh 30.04 in1017.3 mb 0.00 in0.0 mm 0.00 in0.0 mm 0.00 in0.0 mm
10:15 AM 80.7°F27.1°C 64.6°F18.1°C 58% 1.0 mph ENE1.6 kmh ENE 6.1 mph9.8 kmh 30.03 in1016.9 mb 0.00 in0.0 mm 0.00 in0.0 mm 0.00 in0.0 mm
10:30 AM 81.4°F27.4°C 63.2°F17.3°C 54% 1.0 mph NE1.6 kmh NE 2.1 mph3.4 kmh 30.03 in1016.9 mb 0.00 in0.0 mm 0.00 in0.0 mm 0.00 in0.0 mm
10:45 AM 82.2°F27.9°C 66.0°F18.9°C 58% 6.1 mph NW9.8 kmh NW 10.1 mph16.3 kmh 30.03 in1016.9 mb 0.00 in0.0 mm 0.00 in0.0 mm 0.00 in0.0 mm
11:00 AM 82.4°F28.0°C 65.7°F18.7°C 57% 0.1 mph SW0.2 kmh SW 1.1 mph1.8 kmh 30.03 in1016.9 mb 0.00 in0.0 mm 0.00 in0.0 mm 0.00 in0.0 mm
11:15 AM 83.1°F28.4°C 63.7°F17.6°C 52% 3.0 mph SW4.8 kmh SW 5.1 mph8.2 kmh 30.03 in1016.9 mb 0.00 in0.0 mm 0.00 in0.0 mm 0.00 in0.0 mm
11:30 AM 82.5°F28.1°C 63.1°F17.3°C 52% 0.1 mph SE0.2 kmh SE 5.1 mph8.2 kmh 30.03 in1016.9 mb 0.00 in0.0 mm 0.00 in0.0 mm 0.00 in0.0 mm
11:45 AM 82.7°F28.2°C 62.2°F16.8°C 50% 3.0 mph N4.8 kmh N 8.1 mph13.0 kmh 30.03 in1016.9 mb 0.00 in0.0 mm 0.00 in0.0 mm 0.00 in0.0 mm
12:00 PM 82.7°F28.2°C 64.4°F18.0°C 54% 6.1 mph SSW9.8 kmh SSW 6.1 mph9.8 kmh 30.03 in1016.9 mb 0.00 in0.0 mm 0.00 in0.0 mm 0.00 in0.0 mm
12:15 PM 83.3°F28.5°C 63.9°F17.7°C 52% 4.1 mph S6.6 kmh S 4.1 mph6.6 kmh 30.02 in1016.6 mb 0.00 in0.0 mm 0.00 in0.0 mm 0.00 in0.0 mm
12:30 PM 83.6°F28.7°C 61.3°F16.3°C 47% 1.0 mph NE1.6 kmh NE 4.1 mph6.6 kmh 30.01 in1016.3 mb 0.00 in0.0 mm 0.00 in0.0 mm 0.00 in0.0 mm
12:45 PM 84.0°F28.9°C 63.4°F17.4°C 50% 0.1 mph NE0.2 kmh NE 11.2 mph18.0 kmh 30.00 in1015.9 mb 0.00 in0.0 mm 0.00 in0.0 mm 0.00 in0.0 mm
01:00 PM 84.4°F29.1°C 64.9°F18.3°C 52% 3.0 mph NNE4.8 kmh NNE 6.1 mph9.8 kmh 30.00 in1015.9 mb 0.00 in0.0 mm 0.00 in0.0 mm 0.00 in0.0 mm
01:15 PM 84.0°F28.9°C 62.8°F17.1°C 49% 2.0 mph S3.2 kmh S 9.1 mph14.6 kmh 30.00 in1015.9 mb 0.00 in0.0 mm 0.00 in0.0 mm 0.00 in0.0 mm
01:30 PM 84.4°F29.1°C 66.0°F18.9°C 54% 0.1 mph S0.2 kmh S 5.1 mph8.2 kmh 30.00 in1015.9 mb 0.00 in0.0 mm 0.00 in0.0 mm 0.00 in0.0 mm
01:45 PM 84.5°F29.2°C 62.1°F16.7°C 47% 0.1 mph SE0.2 kmh SE 1.1 mph1.8 kmh 29.99 in1015.6 mb 0.00 in0.0 mm 0.00 in0.0 mm 0.00 in0.0 mm
02:00 PM 85.2°F29.6°C 63.3°F17.4°C 48% 4.1 mph SSW6.6 kmh SSW 10.1 mph16.3 kmh 29.99 in1015.6 mb 0.00 in0.0 mm 0.00 in0.0 mm 0.00 in0.0 mm
02:15 PM 84.6°F29.2°C 62.8°F17.1°C 48% 3.0 mph NNW4.8 kmh NNW 10.1 mph16.3 kmh 29.98 in1015.2 mb 0.00 in0.0 mm 0.00 in0.0 mm 0.00 in0.0 mm
02:30 PM 84.4°F29.1°C 62.0°F16.7°C 47% 3.0 mph SE4.8 kmh SE 6.1 mph9.8 kmh 29.98 in1015.2 mb 0.00 in0.0 mm 0.00 in0.0 mm 0.00 in0.0 mm
02:45 PM 85.3°F29.6°C 65.2°F18.4°C 51% 1.0 mph WSW1.6 kmh WSW 2.1 mph3.4 kmh 29.97 in1014.9 mb 0.00 in0.0 mm 0.00 in0.0 mm 0.00 in0.0 mm
03:00 PM 85.2°F29.6°C 61.5°F16.4°C 45% 2.0 mph NE3.2 kmh NE 7.1 mph11.4 kmh 29.97 in1014.9 mb 0.00 in0.0 mm 0.00 in0.0 mm 0.00 in0.0 mm
03:15 PM 83.7°F28.7°C 62.6°F17.0°C 49% 2.0 mph SW3.2 kmh SW 6.1 mph9.8 kmh 29.97 in1014.9 mb 0.00 in0.0 mm 0.00 in0.0 mm 0.00 in0.0 mm
03:30 PM 82.1°F27.8°C 65.4°F18.6°C 57% 5.1 mph SW8.2 kmh SW 5.1 mph8.2 kmh 29.96 in1014.6 mb 0.00 in0.0 mm 0.00 in0.0 mm 0.00 in0.0 mm
03:45 PM 82.9°F28.3°C 63.5°F17.5°C 52% 0.1 mph SE0.2 kmh SE 3.1 mph5.0 kmh 29.97 in1014.9 mb 0.00 in0.0 mm 0.00 in0.0 mm 0.00 in0.0 mm
04:00 PM 82.6°F28.1°C 65.3°F18.5°C 56% 0.1 mph SSW0.2 kmh SSW 3.1 mph5.0 kmh 29.97 in1014.9 mb 0.00 in0.0 mm 0.00 in0.0 mm 0.00 in0.0 mm
04:15 PM 82.7°F28.2°C 66.4°F19.1°C 58% 1.0 mph S1.6 kmh S 3.1 mph5.0 kmh 29.96 in1014.6 mb 0.00 in0.0 mm 0.00 in0.0 mm 0.00 in0.0 mm
04:30 PM 83.8°F28.8°C 64.3°F17.9°C 52% 0.1 mph NE0.2 kmh NE 2.1 mph3.4 kmh 29.96 in1014.6 mb 0.00 in0.0 mm 0.00 in0.0 mm 0.00 in0.0 mm
04:45 PM 84.1°F28.9°C 63.5°F17.5°C 50% 5.1 mph SW8.2 kmh SW 9.1 mph14.6 kmh 29.95 in1014.2 mb 0.00 in0.0 mm 0.00 in0.0 mm 0.00 in0.0 mm
05:00 PM 83.3°F28.5°C 65.5°F18.6°C 55% 1.0 mph SW1.6 kmh SW 3.1 mph5.0 kmh 29.95 in1014.2 mb 0.00 in0.0 mm 0.00 in0.0 mm 0.00 in0.0 mm
05:15 PM 83.5°F28.6°C 65.1°F18.4°C 54% 2.0 mph WSW3.2 kmh WSW 3.1 mph5.0 kmh 29.95 in1014.2 mb 0.00 in0.0 mm 0.00 in0.0 mm 0.00 in0.0 mm
05:30 PM 83.7°F28.7°C 61.4°F16.3°C 47% 4.1 mph WSW6.6 kmh WSW 6.1 mph9.8 kmh 29.95 in1014.2 mb 0.00 in0.0 mm 0.00 in0.0 mm 0.00 in0.0 mm
05:45 PM 83.4°F28.6°C 63.4°F17.4°C 51% 2.0 mph NE3.2 kmh NE 2.1 mph3.4 kmh 29.95 in1014.2 mb 0.00 in0.0 mm 0.00 in0.0 mm 0.00 in0.0 mm
06:00 PM 82.5°F28.1°C 61.4°F16.3°C 49% 0.1 mph SSW0.2 kmh SSW 4.1 mph6.6 kmh 29.94 in1013.9 mb 0.00 in0.0 mm 0.00 in0.0 mm 0.00 in0.0 mm
06:15 PM 82.0°F27.8°C 62.7°F17.1°C 52% 0.1 mph WSW0.2 kmh WSW 4.1 mph6.6 kmh 29.94 in1013.9 mb 0.00 in0.0 mm 0.00 in0.0 mm 0.00 in0.0 mm
06:30 PM 80.6°F27.0°C 63.0°F17.2°C 55% 0.1 mph SSW0.2 kmh SSW 4.1 mph6.6 kmh 29.95 in1014.2 mb 0.00 in0.0 mm 0.00 in0.0 mm 0.00 in0.0 mm
06:45 PM 79.7°F26.5°C 62.6°F17.0°C 56% 0.1 mph S0.2 kmh S 1.1 mph1.8 kmh 29.94 in1013.9 mb 0.00 in0.0 mm 0.00 in0.0 mm 0.00 in0.0 mm
07:00 PM 79.1°F26.2°C 61.0°F16.1°C 54% 0.1 mph S0.2 kmh S 3.1 mph5.0 kmh 29.95 in1014.2 mb 0.00 in0.0 mm 0.00 in0.0 mm 0.00 in0.0 mm
07:15 PM 78.3°F25.7°C 61.8°F16.6°C 57% 0.1 mph S0.2 kmh S 0.1 mph0.2 kmh 29.94 in1013.9 mb 0.00 in0.0 mm 0.00 in0.0 mm 0.00 in0.0 mm
07:30 PM 77.4°F25.2°C 62.9°F17.2°C 61% 0.1 mph S0.2 kmh S 0.1 mph0.2 kmh 29.94 in1013.9 mb 0.00 in0.0 mm 0.00 in0.0 mm 0.00 in0.0 mm
07:45 PM 76.4°F24.7°C 63.3°F17.4°C 64% 0.1 mph S0.2 kmh S 0.1 mph0.2 kmh 29.95 in1014.2 mb 0.00 in0.0 mm 0.00 in0.0 mm 0.00 in0.0 mm
08:00 PM 75.4°F24.1°C 62.4°F16.9°C 64% 0.1 mph S0.2 kmh S 0.1 mph0.2 kmh 29.94 in1013.9 mb 0.00 in0.0 mm 0.00 in0.0 mm 0.00 in0.0 mm
08:15 PM 74.5°F23.6°C 61.5°F16.4°C 64% 0.1 mph S0.2 kmh S 0.1 mph0.2 kmh 29.95 in1014.2 mb 0.00 in0.0 mm 0.00 in0.0 mm 0.00 in0.0 mm
08:30 PM 73.7°F23.2°C 62.0°F16.7°C 67% 0.1 mph S0.2 kmh S 0.1 mph0.2 kmh 29.95 in1014.2 mb 0.00 in0.0 mm 0.00 in0.0 mm 0.00 in0.0 mm
08:45 PM 73.0°F22.8°C 62.2°F16.8°C 69% 0.1 mph S0.2 kmh S 0.1 mph0.2 kmh 29.95 in1014.2 mb 0.00 in0.0 mm 0.00 in0.0 mm 0.00 in0.0 mm
09:00 PM 72.3°F22.4°C 62.7°F17.1°C 72% 0.1 mph S0.2 kmh S 0.1 mph0.2 kmh 29.95 in1014.2 mb 0.00 in0.0 mm 0.00 in0.0 mm 0.00 in0.0 mm
09:15 PM 71.5°F21.9°C 62.4°F16.9°C 73% 0.1 mph S0.2 kmh S 0.1 mph0.2 kmh 29.96 in1014.6 mb 0.00 in0.0 mm 0.00 in0.0 mm 0.00 in0.0 mm
09:30 PM 71.0°F21.7°C 61.9°F16.6°C 73% 0.1 mph S0.2 kmh S 0.1 mph0.2 kmh 29.96 in1014.6 mb 0.00 in0.0 mm 0.00 in0.0 mm 0.00 in0.0 mm
09:45 PM 70.3°F21.3°C 61.6°F16.4°C 74% 0.1 mph S0.2 kmh S 0.1 mph0.2 kmh 29.97 in1014.9 mb 0.00 in0.0 mm 0.00 in0.0 mm 0.00 in0.0 mm
10:00 PM 70.0°F21.1°C 62.8°F17.1°C 78% 1.0 mph S1.6 kmh S 1.1 mph1.8 kmh 29.97 in1014.9 mb 0.00 in0.0 mm 0.00 in0.0 mm 0.00 in0.0 mm
10:15 PM 69.5°F20.8°C 62.7°F17.1°C 79% 0.1 mph S0.2 kmh S 1.1 mph1.8 kmh 29.97 in1014.9 mb 0.00 in0.0 mm 0.00 in0.0 mm 0.00 in0.0 mm
10:30 PM 69.4°F20.8°C 62.9°F17.2°C 80% 0.1 mph S0.2 kmh S 0.1 mph0.2 kmh 29.97 in1014.9 mb 0.00 in0.0 mm 0.00 in0.0 mm 0.00 in0.0 mm
10:45 PM 68.6°F20.3°C 62.6°F17.0°C 81% 0.1 mph S0.2 kmh S 0.1 mph0.2 kmh 29.98 in1015.2 mb 0.00 in0.0 mm 0.00 in0.0 mm 0.00 in0.0 mm
11:00 PM 68.3°F20.2°C 62.6°F17.0°C 82% 0.1 mph S0.2 kmh S 1.1 mph1.8 kmh 29.98 in1015.2 mb 0.00 in0.0 mm 0.00 in0.0 mm 0.00 in0.0 mm
11:15 PM 67.9°F19.9°C 61.6°F16.4°C 80% 0.1 mph S0.2 kmh S 1.1 mph1.8 kmh 29.98 in1015.2 mb 0.00 in0.0 mm 0.00 in0.0 mm 0.00 in0.0 mm
11:30 PM 68.7°F20.4°C 62.0°F16.7°C 79% 0.1 mph NW0.2 kmh NW 1.1 mph1.8 kmh 29.99 in1015.6 mb 0.00 in0.0 mm 0.00 in0.0 mm 0.00 in0.0 mm
11:45 PM 67.7°F19.8°C 61.4°F16.3°C 80% 0.1 mph NW0.2 kmh NW 0.1 mph0.2 kmh 29.99 in1015.6 mb 0.00 in0.0 mm 0.00 in0.0 mm 0.00 in0.0 mm